Aeroporto :
LOGIN :

Iscrizione | Disclaimer

   EN    FR    IT 

 










Sommario :    VFR   VFR Marginale   IFR   IFR Intensivo   IFR Molto Intensivo
Visibilità : 
Base nubi : 
>= 8 km
>= 3000ft
5 / 8 km
1000 / 3000 ft
1500m / 5 km
500 / 1000 ft
800 / 1500m
200 / 500 ft
< 800m
< 200 ft
Simboli :   Temporali  Nebbia  Neve Forte  Precipitazioni Forti  Vento > 20 kt
SIGMETs :   Varie  Temporali  Ghiacco  Turbolenza  Onda orograficha  Ceneri Vulcaniche






- Altitudine del aeroporto : 1947 ft
- Codice IATA : OBF


EDMO - Oberpfaffenhofen

ULTIMO METAR :
  • 292350Z AUTO 18005KT 9999 // OVC072/// 12/11 Q1011

METARs OBSOLETI :
  • 292320Z AUTO 19004KT 9999 // FEW057/// OVC073/// 13/11 Q1011
  • 292250Z AUTO 17003KT 9999 // FEW055/// SCT064/// OVC079/// 12/11 Q1012
  • 292220Z AUTO 19003KT 9999 // OVC077/// 13/11 Q1012
  • 292150Z AUTO 19002KT 9999 // OVC074/// 12/11 Q1012
  • 292120Z AUTO VRB02KT 9999 // BKN064/// OVC073/// 13/11 Q1012
  • 292050Z AUTO 21004KT 9999 // BKN073/// OVC100/// 13/11 Q1012
  • 292020Z AUTO 21004KT 9999 // OVC069/// 13/11 Q1013
  • 291950Z AUTO 18005KT 9999 // OVC081/// 13/11 Q1013
  • 291920Z AUTO 18004KT 9999 // OVC072/// 13/11 Q1013

Previsioni scadute.



MetMap, La meteo Aeronautica in un colpo d'occhio ! - Copyright ORBIFLY Dicembre 2007 - Disclaimer

ORBIFLY MET'MAP TEAM :

Programmazione e sviluppo : Alexandra Zaïnal
Concezione : Baudouin d'Aumeries
Supporto tecnico e logistico : Manuel Goepfert
Aiuto : Marc-Olivier Méhu
Aiuto per la traduzione : Arnaldo La Scala




FONTI E CREDITI :

   NOAA